createdAt,value
2018-12-22T08:14:05.402Z,29.77
2018-12-22T08:36:44.496Z,24.07
2018-12-22T08:42:22.880Z,17.20
2018-12-22T08:47:54.924Z,22.30
2018-12-22T08:53:31.733Z,17.90
2018-12-22T09:04:40.272Z,15.93
2018-12-22T09:27:14.488Z,13.40
2018-12-22T09:50:15.689Z,11.43
2018-12-22T09:55:49.299Z,12.03
2018-12-22T10:06:42.405Z,12.30
2018-12-22T10:18:02.535Z,18.43
2018-12-22T10:45:37.230Z,14.00
2018-12-22T10:50:31.732Z,14.33
2018-12-22T10:55:26.268Z,15.33
2018-12-22T11:00:20.748Z,13.43
2018-12-22T11:05:16.723Z,12.77
2018-12-22T11:10:21.269Z,11.87
2018-12-22T11:15:15.847Z,11.67
2018-12-22T11:20:10.310Z,10.53
2018-12-22T11:25:09.441Z,10.67
2018-12-22T11:30:04.348Z,10.90
2018-12-22T11:34:58.783Z,10.93
2018-12-22T11:39:53.260Z,8.33
2018-12-22T11:44:47.725Z,8.37
2018-12-22T11:49:43.921Z,7.97
2018-12-22T11:54:38.448Z,7.33
2018-12-22T11:59:32.993Z,6.50
2018-12-22T12:04:27.489Z,6.17
2018-12-22T12:09:21.972Z,6.50
2018-12-22T12:14:16.420Z,6.30
2018-12-22T12:19:18.473Z,5.80
2018-12-22T12:24:14.121Z,5.40
2018-12-22T12:29:08.628Z,7.23
2018-12-22T12:34:03.095Z,5.83
2018-12-22T12:38:57.553Z,5.33
2018-12-22T12:43:52.107Z,7.10
2018-12-22T12:48:46.633Z,6.33
2018-12-22T12:53:41.181Z,7.10
2018-12-22T12:58:36.724Z,6.50
2018-12-22T13:03:31.172Z,5.83
2018-12-22T13:08:25.632Z,6.20
2018-12-22T13:13:28.971Z,6.70
2018-12-22T13:18:23.448Z,5.93
2018-12-22T13:23:17.893Z,5.67
2018-12-22T13:28:12.401Z,5.40
2018-12-22T13:33:07.047Z,52.30
2018-12-22T13:38:01.605Z,10.97
2018-12-22T13:42:56.088Z,8.00
2018-12-22T13:47:52.260Z,6.90
2018-12-22T13:52:47.056Z,7.57
2018-12-22T13:57:41.617Z,8.67
2018-12-22T14:02:38.494Z,8.03
2018-12-22T14:07:33.011Z,10.40
2018-12-22T14:12:27.472Z,9.87
2018-12-22T14:17:28.281Z,10.47
2018-12-22T14:22:22.734Z,10.37
2018-12-22T14:27:17.236Z,10.73
2018-12-22T14:32:11.743Z,16.43
2018-12-22T14:37:06.222Z,14.20
2018-12-22T14:42:00.713Z,17.30
2018-12-22T14:46:55.208Z,21.43
2018-12-22T14:51:50.766Z,6.10
2018-12-22T14:56:46.960Z,2.30
2018-12-22T15:01:41.487Z,2.10
2018-12-22T15:06:35.940Z,1.60
2018-12-22T15:11:30.442Z,1.90
2018-12-22T15:16:24.897Z,2.93
2018-12-22T15:21:20.204Z,5.07
2018-12-22T15:26:14.672Z,5.53
2018-12-22T15:31:09.148Z,6.03
2018-12-22T15:36:03.676Z,9.83
2018-12-22T15:40:58.430Z,8.17
2018-12-22T15:45:53.826Z,10.17
2018-12-22T15:50:49.577Z,10.70
2018-12-22T15:55:44.088Z,11.73
2018-12-22T16:00:38.587Z,10.30
2018-12-22T16:05:33.047Z,12.03
2018-12-22T16:10:27.526Z,12.10
2018-12-22T16:15:22.016Z,13.13
2018-12-22T16:20:17.510Z,20.80
2018-12-22T16:25:12.111Z,14.90
2018-12-22T16:30:11.290Z,22.50
2018-12-22T16:35:06.605Z,23.33
2018-12-22T16:40:01.574Z,33.70
2018-12-22T16:44:56.512Z,18.37
2018-12-22T16:49:51.586Z,29.70
2018-12-22T16:54:46.191Z,27.83
2018-12-22T16:59:40.673Z,22.57
2018-12-22T17:04:35.445Z,16.37
2018-12-22T17:09:29.900Z,17.30
2018-12-22T17:14:24.411Z,23.53
2018-12-22T17:19:18.865Z,23.77
2018-12-22T17:24:22.589Z,31.73
2018-12-22T17:29:17.109Z,23.10
2018-12-22T17:34:11.824Z,21.73
2018-12-22T17:39:09.156Z,23.87
2018-12-22T17:44:03.644Z,27.10
2018-12-22T17:48:58.175Z,30.57
2018-12-22T17:53:53.233Z,30.23
2018-12-22T17:58:48.312Z,31.93
2018-12-22T18:03:43.114Z,27.00
2018-12-22T18:08:37.577Z,25.70
2018-12-22T18:13:32.070Z,24.67
2018-12-22T18:18:26.728Z,22.57
2018-12-22T18:23:21.264Z,21.63
2018-12-22T18:28:16.061Z,23.03
2018-12-22T18:33:10.542Z,22.67
2018-12-22T18:38:06.369Z,18.97
2018-12-22T18:43:00.864Z,24.37
2018-12-22T18:47:55.917Z,25.33
2018-12-22T18:52:50.372Z,39.77
2018-12-22T18:57:46.181Z,25.43
2018-12-22T19:02:40.664Z,27.03
2018-12-22T19:07:35.182Z,40.83
2018-12-22T19:12:30.369Z,28.80
2018-12-22T19:17:24.874Z,34.10
2018-12-22T19:22:19.423Z,26.27
2018-12-22T19:27:13.893Z,25.63
2018-12-22T19:32:08.377Z,22.47
2018-12-22T19:37:02.839Z,74.53
2018-12-22T19:41:57.396Z,26.70
2018-12-22T19:46:52.730Z,33.03
2018-12-22T19:51:47.300Z,38.87
2018-12-22T19:56:41.771Z,30.37
2018-12-22T20:07:21.475Z,31.37
2018-12-22T20:12:16.257Z,26.77
2018-12-22T20:17:10.880Z,32.20
2018-12-22T20:28:22.998Z,30.57
2018-12-22T20:34:10.697Z,22.80
2018-12-22T21:02:14.451Z,22.97
2018-12-22T21:13:10.044Z,27.93
2018-12-22T21:18:10.336Z,26.60
2018-12-22T21:23:09.593Z,26.63
2018-12-22T21:28:09.519Z,32.50
2018-12-22T21:33:10.506Z,30.30
2018-12-22T21:38:10.142Z,31.20
2018-12-22T21:43:10.176Z,26.83
2018-12-22T21:48:10.058Z,30.37
2018-12-22T21:53:08.972Z,29.17
2018-12-22T21:58:08.281Z,33.13
2018-12-22T22:03:05.984Z,34.77
2018-12-22T22:08:00.500Z,28.90
2018-12-22T22:12:55.082Z,28.90
2018-12-22T22:17:49.680Z,23.17
2018-12-22T22:22:44.152Z,27.27
2018-12-22T22:27:38.620Z,28.40
2018-12-22T22:32:33.069Z,30.23
2018-12-22T22:37:42.955Z,26.70
2018-12-22T22:42:39.085Z,26.87
2018-12-22T22:47:42.537Z,23.20
2018-12-22T22:57:55.983Z,22.83
2018-12-22T23:02:50.501Z,19.33
2018-12-22T23:07:45.073Z,19.17
2018-12-22T23:12:39.576Z,19.07
2018-12-22T23:17:34.081Z,18.10
2018-12-22T23:22:28.727Z,16.00
2018-12-22T23:27:23.358Z,16.70
2018-12-22T23:32:17.864Z,13.97
2018-12-22T23:37:12.404Z,15.27
2018-12-22T23:42:07.468Z,12.07
2018-12-22T23:47:02.331Z,16.70
2018-12-22T23:51:56.838Z,11.07
2018-12-22T23:56:51.342Z,12.97
